Aérodrome :
LOGIN :

S'inscrire | Disclaimer

   EN    FR    IT 

 










Légende :    VFR   VFR Marginal   IFR   IFR Intensif   IFR Très Intensif
Visi : 
Plafond : 
>= 8 km
>= 3000ft
5 à 8 km
1000 à 3000 ft
1500m à 5 km
500 à 1000 ft
800 à 1500m
200 à 500 ft
< 800m
< 200 ft
Symboles :   Orages  Brouillard  Fortes neiges  Fortes précipitations  Vent > 20 kt
SIGMETs :   Divers  Orages  Givrage  Turbulence  Onde Orograph.  Cendres Volcan.







- Altitude de l'aérodrome : 1276 ft
- Code IATA : STR


EDDS - Stuttgart

DERNIER METAR :
  • 280020Z 24004KT 170V320 9999 SCT038 BKN110 16/15 Q1012

METARs EXPIRÉS :
  • 272350Z 26005KT 9999 FEW015 BKN076 BKN120 16/15 Q1012
  • 272320Z 24004KT 170V280 CAVOK 16/14 Q1012
  • 272250Z VRB03KT 9999 VCSH FEW022CB SCT072 BKN100 17/16 Q1011 RERA
  • 272231Z VRB05KT 9999 -SHRA FEW007 SCT022CB BKN070 17/16 Q1011 RERA
  • 272220Z 22004KT 150V270 9000 SHRA FEW015 BKN022CB 17/16 Q1011
  • 272202Z 19003KT 140V260 9999 -SHRA SCT023CB BKN038 17/16 Q1011 RERA
  • 272150Z 20004KT 130V250 9000 SHRA BKN030CB 17/16 Q1011
  • 272133Z 23003KT 200V270 5000 +SHRA BKN028CB 17/16 Q1011
  • 272124Z 24003KT 180V300 9999 SHRA SCT028CB BKN050 17/16 Q1011

TAF TAF EDDS
Valide du 28 à 00h jusqu'au 29 à 00h UTC


272300Z 2800/2824 22004KT 9999 SCT040
BECMG 2807/2809 28008KT
BECMG 2818/2820 22003KT
Pas de NOTAMs connus pour ce terrain.



MET'MAP, la Météo Aéronautique d'un coup d'oeil ! - Copyright ORBIFLY Décembre 2007 - Disclaimer

ORBIFLY MET'MAP TEAM :

Programmation & Développement : Alexandra Zaïnal
Conception & Développement : Baudouin d'Aumeries
Co-Programmation & Développement : Marc-Olivier Méhu
Soutien technique & logistique : Manuel Goepfert

Contact : metmap@orbifly.com




SOURCES & CREDITS :

   NOAA